createdAt,value
2019-01-18T00:00:10.093Z,99.99
2019-01-18T00:01:10.330Z,99.99
2019-01-18T00:02:10.320Z,99.99
2019-01-18T00:03:10.321Z,99.99
2019-01-18T00:04:10.055Z,99.99
2019-01-18T00:05:10.041Z,99.99
2019-01-18T00:06:10.274Z,99.99
2019-01-18T00:07:10.037Z,99.99
2019-01-18T00:08:10.253Z,99.99
2019-01-18T00:09:10.239Z,99.99
2019-01-18T00:10:10.232Z,99.99
2019-01-18T00:11:10.239Z,99.95
2019-01-18T00:12:10.213Z,99.48
2019-01-18T00:13:10.196Z,98.15
2019-01-18T00:14:09.936Z,98.15
2019-01-18T00:15:09.941Z,98.34
2019-01-18T00:16:10.162Z,98.72
2019-01-18T00:17:09.932Z,98.63
2019-01-18T00:18:10.155Z,98.53
2019-01-18T00:19:09.882Z,99.85
2019-01-18T00:20:10.132Z,99.99
2019-01-18T00:21:09.865Z,99.99
2019-01-18T00:22:09.851Z,99.66
2019-01-18T00:23:09.844Z,99.99
2019-01-18T00:24:10.086Z,99.99
2019-01-18T00:25:10.073Z,99.99
2019-01-18T00:26:09.815Z,99.85
2019-01-18T00:27:10.082Z,99.66
2019-01-18T00:28:10.030Z,98.34
2019-01-18T00:29:10.012Z,98.34
2019-01-18T00:30:09.755Z,98.25
2019-01-18T00:31:09.997Z,98.25
2019-01-18T00:32:09.977Z,98.15
2019-01-18T00:33:09.739Z,97.96
2019-01-18T00:34:09.964Z,97.77
2019-01-18T00:35:09.693Z,97.39
2019-01-18T00:36:09.941Z,97.87
2019-01-18T00:37:09.677Z,97.96
2019-01-18T00:38:09.909Z,97.77
2019-01-18T00:39:09.920Z,97.77
2019-01-18T00:40:09.639Z,97.49
2019-01-18T00:41:09.634Z,98.15
2019-01-18T00:42:09.618Z,97.96
2019-01-18T00:43:09.854Z,98.34
2019-01-18T00:44:09.849Z,98.63
2019-01-18T00:45:09.828Z,99.85
2019-01-18T00:46:09.819Z,99.85
2019-01-18T00:47:09.832Z,98.82
2019-01-18T00:48:09.795Z,99.29
2019-01-18T00:49:09.533Z,99.19
2019-01-18T00:50:09.781Z,98.82
2019-01-18T00:51:09.761Z,98.53
2019-01-18T00:52:09.757Z,98.82
2019-01-18T00:53:09.500Z,98.63
2019-01-18T00:54:09.730Z,99.29
2019-01-18T00:55:09.719Z,99.48
2019-01-18T00:56:09.721Z,99.1
2019-01-18T00:57:09.453Z,98.91
2019-01-18T00:58:09.682Z,99.85
2019-01-18T00:59:09.422Z,99.99
2019-01-18T01:00:09.655Z,99.95
2019-01-18T01:01:09.660Z,99.95
2019-01-18T01:02:09.637Z,99.85
2019-01-18T01:03:09.618Z,99.66
2019-01-18T01:04:09.621Z,99.1
2019-01-18T01:05:09.611Z,98.82
2019-01-18T01:06:09.596Z,97.77
2019-01-18T01:07:09.603Z,98.63
2019-01-18T01:08:09.586Z,99.19
2019-01-18T01:09:09.572Z,99.01
2019-01-18T01:10:09.318Z,98.63
2019-01-18T01:11:09.530Z,98.53
2019-01-18T01:12:09.283Z,97.96
2019-01-18T01:13:09.513Z,98.06
2019-01-18T01:14:09.509Z,97.87
2019-01-18T01:15:09.504Z,97.87
2019-01-18T01:16:09.500Z,98.15
2019-01-18T01:17:09.226Z,97.87
2019-01-18T01:18:09.457Z,97.2
2019-01-18T01:19:09.467Z,97.06
2019-01-18T01:20:09.193Z,96.45
2019-01-18T01:21:09.200Z,97.58
2019-01-18T01:22:09.409Z,97.35
2019-01-18T01:23:09.173Z,96.92
2019-01-18T01:24:09.397Z,96.64
2019-01-18T01:25:09.383Z,96.73
2019-01-18T01:26:09.369Z,96.45
2019-01-18T01:27:09.112Z,96.21
2019-01-18T01:28:09.104Z,95.78
2019-01-18T01:29:09.338Z,95.88
2019-01-18T01:30:09.330Z,95.88
2019-01-18T01:31:09.063Z,95.97
2019-01-18T01:32:09.305Z,95.88
2019-01-18T01:33:09.048Z,95.69
2019-01-18T01:34:09.294Z,94.84
2019-01-18T01:35:09.268Z,95.03
2019-01-18T01:36:09.271Z,95.78
2019-01-18T01:37:09.246Z,96.16
2019-01-18T01:38:09.236Z,96.64
2019-01-18T01:39:08.981Z,97.3
2019-01-18T01:40:08.966Z,97.3
2019-01-18T01:41:09.213Z,96.64
2019-01-18T01:42:09.192Z,96.54
2019-01-18T01:43:08.929Z,96.07
2019-01-18T01:44:08.921Z,95.78
2019-01-18T01:45:09.167Z,96.07
2019-01-18T01:46:09.147Z,95.93
2019-01-18T01:47:09.139Z,95.69
2019-01-18T01:48:09.119Z,95.59
2019-01-18T01:49:09.114Z,96.07
2019-01-18T01:50:09.100Z,96.07
2019-01-18T01:51:09.115Z,96.64
2019-01-18T01:52:08.835Z,96.83
2019-01-18T01:53:09.065Z,96.69
2019-01-18T01:54:09.075Z,97.06
2019-01-18T01:55:08.794Z,97.92
2019-01-18T01:56:09.031Z,97.44
2019-01-18T01:57:09.020Z,96.21
2019-01-18T01:58:09.009Z,95.93
2019-01-18T01:59:09.003Z,95.93
2019-01-18T02:00:08.738Z,95.83
2019-01-18T02:01:08.981Z,95.26
2019-01-18T02:02:08.976Z,94.32
2019-01-18T02:03:08.706Z,94.89
2019-01-18T02:04:08.946Z,94.27
2019-01-18T02:05:08.944Z,94.6
2019-01-18T02:06:08.932Z,94.79
2019-01-18T02:07:08.913Z,94.79
2019-01-18T02:08:08.902Z,94.23
2019-01-18T02:09:08.893Z,94.6
2019-01-18T02:10:08.879Z,94.13
2019-01-18T02:11:08.889Z,94.56
2019-01-18T02:12:08.607Z,94.56
2019-01-18T02:13:08.860Z,95.26
2019-01-18T02:14:08.595Z,94.89
2019-01-18T02:15:08.577Z,95.26
2019-01-18T02:16:08.587Z,95.17
2019-01-18T02:17:08.799Z,95.4
2019-01-18T02:18:08.796Z,95.31
2019-01-18T02:19:08.790Z,95.26
2019-01-18T02:20:08.772Z,95.31
2019-01-18T02:21:08.757Z,95.07
2019-01-18T02:22:08.753Z,95.45
2019-01-18T02:23:08.756Z,94.7
2019-01-18T02:24:08.744Z,94.51
2019-01-18T02:25:08.710Z,94.56
2019-01-18T02:26:08.704Z,94.27
2019-01-18T02:27:08.696Z,94.08
2019-01-18T02:28:08.692Z,94.27
2019-01-18T02:29:08.666Z,94.56
2019-01-18T02:30:08.663Z,94.27
2019-01-18T02:31:08.398Z,93.99
2019-01-18T02:32:08.638Z,93.94
2019-01-18T02:33:08.633Z,94.6
2019-01-18T02:34:08.365Z,94.18
2019-01-18T02:35:08.609Z,93.46
2019-01-18T02:36:08.595Z,94.04
2019-01-18T02:37:08.582Z,93.75
2019-01-18T02:38:08.579Z,94.13
2019-01-18T02:39:08.561Z,93.65
2019-01-18T02:40:08.318Z,93.56
2019-01-18T02:41:08.545Z,92.8
2019-01-18T02:42:08.529Z,92.52
2019-01-18T02:43:08.516Z,92.61
2019-01-18T02:44:08.512Z,92.24
2019-01-18T02:45:08.494Z,91.95
2019-01-18T02:46:08.484Z,92.43
2019-01-18T02:47:08.467Z,92.52
2019-01-18T02:48:08.461Z,91.95
2019-01-18T02:49:08.462Z,92.05
2019-01-18T02:50:08.198Z,91.76
2019-01-18T02:51:08.225Z,91.95
2019-01-18T02:52:08.417Z,92.9
2019-01-18T02:53:08.403Z,92.43
2019-01-18T02:54:08.413Z,92.14
2019-01-18T02:55:08.403Z,91.95
2019-01-18T02:56:08.369Z,90.44
2019-01-18T02:57:08.353Z,90.06
2019-01-18T02:58:08.357Z,89.58
2019-01-18T02:59:08.344Z,89.49
2019-01-18T03:00:08.358Z,89.11
2019-01-18T03:01:08.320Z,88.82
2019-01-18T03:02:08.061Z,88.26
2019-01-18T03:03:08.310Z,88.92
2019-01-18T03:04:08.287Z,89.39
2019-01-18T03:05:08.279Z,88.54
2019-01-18T03:06:08.273Z,87.78
2019-01-18T03:07:08.251Z,87.69
2019-01-18T03:08:07.999Z,87.12
2019-01-18T03:09:08.240Z,86.65
2019-01-18T03:10:08.219Z,87.02
2019-01-18T03:11:07.959Z,85.99
2019-01-18T03:12:08.264Z,86.55
2019-01-18T03:13:08.189Z,85.8
2019-01-18T03:14:07.939Z,85.89
2019-01-18T03:15:08.194Z,86.55
2019-01-18T03:16:08.153Z,86.65
2019-01-18T03:17:07.911Z,86.83
2019-01-18T03:18:08.140Z,86.46
2019-01-18T03:19:08.126Z,87.02
2019-01-18T03:20:08.122Z,87.59
2019-01-18T03:21:08.114Z,88.35
2019-01-18T03:22:08.092Z,89.2
2019-01-18T03:23:08.081Z,89.96
2019-01-18T03:24:08.077Z,89.68
2019-01-18T03:25:08.065Z,90.34
2019-01-18T03:26:08.042Z,91.38
2019-01-18T03:27:07.791Z,91.86
2019-01-18T03:28:08.102Z,92.8
2019-01-18T03:29:07.771Z,92.52
2019-01-18T03:30:21.192Z,93.27
2019-01-18T03:31:07.994Z,94.13
2019-01-18T03:32:08.033Z,94.04
2019-01-18T03:33:08.195Z,93.56
2019-01-18T03:34:07.963Z,93.65
2019-01-18T03:35:07.948Z,93.27
2019-01-18T03:36:07.939Z,93.37
2019-01-18T03:37:07.948Z,93.37
2019-01-18T03:38:07.940Z,93.56
2019-01-18T03:39:07.671Z,93.94
2019-01-18T03:40:07.893Z,94.04
2019-01-18T03:41:07.652Z,94.7
2019-01-18T03:42:07.881Z,94.89
2019-01-18T03:43:07.860Z,95.07
2019-01-18T03:44:07.612Z,94.98
2019-01-18T03:45:07.835Z,95.12
2019-01-18T03:46:07.590Z,94.98
2019-01-18T03:47:07.567Z,94.7
2019-01-18T03:48:07.808Z,95.26
2019-01-18T03:49:07.796Z,95.26
2019-01-18T03:50:07.803Z,95.93
2019-01-18T03:51:07.777Z,95.93
2019-01-18T03:52:07.763Z,95.83
2019-01-18T03:53:07.775Z,95.78
2019-01-18T03:54:07.744Z,96.5
2019-01-18T03:55:08.543Z,96.5
2019-01-18T03:56:07.731Z,95.55
2019-01-18T03:57:07.466Z,96.12
2019-01-18T03:58:07.686Z,96.31
2019-01-18T03:59:07.432Z,96.45
2019-01-18T04:00:08.017Z,96.69
2019-01-18T04:01:07.690Z,96.78
2019-01-18T04:02:07.661Z,96.45
2019-01-18T04:03:07.403Z,95.93
2019-01-18T04:04:07.650Z,95.83
2019-01-18T04:05:07.621Z,95.93
2019-01-18T04:06:07.610Z,96.02
2019-01-18T04:07:07.600Z,96.26
2019-01-18T04:08:07.591Z,96.59
2019-01-18T04:09:07.376Z,96.4
2019-01-18T04:10:07.584Z,96.88
2019-01-18T04:11:07.574Z,96.35
2019-01-18T04:12:07.552Z,96.21
2019-01-18T04:13:07.576Z,97.06
2019-01-18T04:14:07.528Z,97.25
2019-01-18T04:15:07.275Z,96.97
2019-01-18T04:16:07.505Z,97.54
2019-01-18T04:17:07.492Z,97.54
2019-01-18T04:18:07.235Z,96.12
2019-01-18T04:19:07.472Z,96.02
2019-01-18T04:20:07.455Z,94.7
2019-01-18T04:21:07.457Z,95.45
2019-01-18T04:22:07.187Z,95.64
2019-01-18T04:23:07.443Z,96.02
2019-01-18T04:24:07.165Z,95.74
2019-01-18T04:25:07.402Z,95.93
2019-01-18T04:26:07.411Z,96.4
2019-01-18T04:27:07.382Z,96.31
2019-01-18T04:28:07.375Z,97.25
2019-01-18T04:29:07.121Z,97.25
2019-01-18T04:30:07.126Z,97.3
2019-01-18T04:31:07.331Z,97.54
2019-01-18T04:32:07.352Z,97.87
2019-01-18T04:33:07.312Z,97.35
2019-01-18T04:34:07.348Z,97.73
2019-01-18T04:35:07.326Z,98.3
2019-01-18T04:36:07.314Z,98.58
2019-01-18T04:37:07.321Z,98.01
2019-01-18T04:38:07.271Z,97.73
2019-01-18T04:39:07.258Z,97.63
2019-01-18T04:40:07.251Z,97.73
2019-01-18T04:41:07.237Z,97.35
2019-01-18T04:42:07.215Z,97.06
2019-01-18T04:43:07.206Z,97.25
2019-01-18T04:44:06.949Z,97.35
2019-01-18T04:45:06.940Z,97.54
2019-01-18T04:46:07.186Z,97.73
2019-01-18T04:47:07.181Z,96.4
2019-01-18T04:48:07.157Z,95.74
2019-01-18T04:49:07.274Z,95.07
2019-01-18T04:50:07.136Z,95.93
2019-01-18T04:51:06.879Z,95.93
2019-01-18T04:52:07.194Z,95.64
2019-01-18T04:53:07.181Z,96.5
2019-01-18T04:54:07.098Z,96.69
2019-01-18T04:55:07.081Z,96.97
2019-01-18T04:56:07.068Z,97.06
2019-01-18T04:57:07.064Z,97.16
2019-01-18T04:58:06.798Z,97.16
2019-01-18T04:59:07.057Z,94.89
2019-01-18T05:00:07.024Z,93.37
2019-01-18T05:01:07.014Z,93.75
2019-01-18T05:02:07.018Z,93.99
2019-01-18T05:03:06.986Z,94.13
2019-01-18T05:04:06.746Z,94.6
2019-01-18T05:05:06.976Z,94.51
2019-01-18T05:06:06.958Z,93.56
2019-01-18T05:07:06.948Z,94.13
2019-01-18T05:08:06.938Z,94.51
2019-01-18T05:09:06.932Z,95.36
2019-01-18T05:10:06.694Z,95.55
2019-01-18T05:11:06.659Z,96.02
2019-01-18T05:12:06.649Z,95.83
2019-01-18T05:13:06.888Z,94.79
2019-01-18T05:14:06.879Z,93.65
2019-01-18T05:15:06.622Z,94.13
2019-01-18T05:16:06.853Z,94.51
2019-01-18T05:17:06.847Z,94.23
2019-01-18T05:18:06.831Z,93.46
2019-01-18T05:19:06.831Z,93.18
2019-01-18T05:20:06.817Z,92.9
2019-01-18T05:21:06.557Z,92.9
2019-01-18T05:22:06.875Z,93.56
2019-01-18T05:23:06.852Z,92.8
2019-01-18T05:24:06.768Z,92.71
2019-01-18T05:25:06.787Z,92.9
2019-01-18T05:26:06.761Z,92.9
2019-01-18T05:27:06.743Z,92.61
2019-01-18T05:28:06.502Z,92.57
2019-01-18T05:29:06.722Z,92.43
2019-01-18T05:30:06.707Z,91.95
2019-01-18T05:31:06.706Z,92.52
2019-01-18T05:32:06.681Z,91.86
2019-01-18T05:33:06.667Z,91.67
2019-01-18T05:34:06.423Z,92.14
2019-01-18T05:35:06.660Z,92.61
2019-01-18T05:36:06.629Z,92.43
2019-01-18T05:37:06.616Z,92.19
2019-01-18T05:38:06.357Z,92.33
2019-01-18T05:39:06.619Z,92.61
2019-01-18T05:40:06.588Z,92.61
2019-01-18T05:41:06.335Z,93.65
2019-01-18T05:42:06.588Z,93.65
2019-01-18T05:43:06.562Z,94.13
2019-01-18T05:44:06.545Z,93.46
2019-01-18T05:45:06.539Z,92.8
2019-01-18T05:46:06.525Z,92.43
2019-01-18T05:47:06.514Z,92.61
2019-01-18T05:48:06.505Z,93.56
2019-01-18T05:49:06.510Z,93.84
2019-01-18T05:50:06.490Z,93.94
2019-01-18T05:51:06.478Z,94.13
2019-01-18T05:52:06.463Z,94.13
2019-01-18T05:53:06.223Z,93.94
2019-01-18T05:54:06.438Z,93.65
2019-01-18T05:55:06.434Z,92.9
2019-01-18T05:56:06.444Z,93.56
2019-01-18T05:57:06.408Z,93.56
2019-01-18T05:58:06.401Z,93.56
2019-01-18T05:59:06.400Z,93.18
2019-01-18T06:00:06.129Z,93.46
2019-01-18T06:01:06.358Z,93.65
2019-01-18T06:02:06.353Z,93.08
2019-01-18T06:03:06.353Z,93.46
2019-01-18T06:04:06.347Z,94.32
2019-01-18T06:05:06.320Z,94.23
2019-01-18T06:06:06.310Z,94.04
2019-01-18T06:07:06.293Z,94.23
2019-01-18T06:08:06.284Z,94.79
2019-01-18T06:09:06.279Z,94.51
2019-01-18T06:10:06.260Z,94.32
2019-01-18T06:11:06.273Z,93.84
2019-01-18T06:12:06.010Z,93.46
2019-01-18T06:13:06.234Z,93.08
2019-01-18T06:14:05.985Z,93.84
2019-01-18T06:15:06.206Z,94.51
2019-01-18T06:16:06.202Z,94.51
2019-01-18T06:17:06.188Z,94.42
2019-01-18T06:18:05.922Z,94.04
2019-01-18T06:19:06.193Z,94.32
2019-01-18T06:20:05.924Z,93.94
2019-01-18T06:21:06.137Z,93.65
2019-01-18T06:22:06.160Z,94.13
2019-01-18T06:23:05.868Z,94.42
2019-01-18T06:24:06.109Z,94.56
2019-01-18T06:25:06.121Z,94.51
2019-01-18T06:26:05.839Z,94.32
2019-01-18T06:27:05.843Z,93.94
2019-01-18T06:28:06.107Z,94.04
2019-01-18T06:29:06.047Z,94.6
2019-01-18T06:30:06.039Z,94.32
2019-01-18T06:31:05.780Z,94.32
2019-01-18T06:32:06.057Z,94.42
2019-01-18T06:33:05.755Z,94.51
2019-01-18T06:34:06.010Z,94.37
2019-01-18T06:35:05.982Z,94.42
2019-01-18T06:36:06.014Z,94.23
2019-01-18T06:37:05.736Z,94.23
2019-01-18T06:38:05.982Z,95.26
2019-01-18T06:39:05.944Z,95.26
2019-01-18T06:40:05.925Z,94.7
2019-01-18T06:41:05.671Z,94.79
2019-01-18T06:42:05.915Z,94.89
2019-01-18T06:43:05.899Z,95.17
2019-01-18T06:44:05.655Z,95.74
2019-01-18T06:45:05.873Z,96.31
2019-01-18T06:46:05.627Z,97.92
2019-01-18T06:47:05.854Z,99.71
2019-01-18T06:48:05.838Z,99.99
2019-01-18T06:49:05.847Z,99.99
2019-01-18T06:50:05.834Z,99.99
2019-01-18T06:51:05.811Z,99.99
2019-01-18T06:52:05.795Z,99.99
2019-01-18T06:53:05.783Z,99.99
2019-01-18T06:54:05.785Z,99.99
2019-01-18T06:55:05.523Z,99.99
2019-01-18T06:56:05.754Z,99.99
2019-01-18T06:57:05.489Z,99.99
2019-01-18T06:58:05.745Z,99.99
2019-01-18T06:59:05.718Z,99.99
2019-01-18T07:00:05.479Z,99.99
2019-01-18T07:01:10.973Z,99.99
2019-01-18T07:02:05.436Z,99.99
2019-01-18T07:03:05.696Z,99.99
2019-01-18T07:04:05.666Z,99.99
2019-01-18T07:05:05.662Z,99.99
2019-01-18T07:06:05.396Z,99.99
2019-01-18T07:07:05.443Z,99.99
2019-01-18T07:08:05.674Z,99.99
2019-01-18T07:09:05.608Z,99.99
2019-01-18T07:10:05.595Z,99.99
2019-01-18T07:11:05.346Z,99.99
2019-01-18T07:12:05.591Z,99.99
2019-01-18T07:13:05.573Z,99.99
2019-01-18T07:14:05.554Z,99.99
2019-01-18T07:15:05.557Z,99.99
2019-01-18T07:16:05.540Z,99.99
2019-01-18T07:17:05.528Z,99.99
2019-01-18T07:18:05.511Z,99.99
2019-01-18T07:19:05.498Z,99.99
2019-01-18T07:20:06.995Z,99.99
2019-01-18T07:21:05.492Z,99.99
2019-01-18T07:22:05.256Z,99.99
2019-01-18T07:23:05.263Z,99.99
2019-01-18T07:24:05.196Z,99.99
2019-01-18T07:25:05.434Z,99.99
2019-01-18T07:26:05.178Z,99.99
2019-01-18T07:27:06.202Z,99.99
2019-01-18T07:28:05.395Z,99.99
2019-01-18T07:29:05.385Z,99.99
2019-01-18T07:30:05.413Z,99.99
2019-01-18T07:31:05.356Z,99.99
2019-01-18T07:32:05.105Z,99.99
2019-01-18T07:33:05.338Z,99.99
2019-01-18T07:34:05.328Z,99.99
2019-01-18T07:35:05.066Z,99.99
2019-01-18T07:36:05.330Z,99.99
2019-01-18T07:37:05.078Z,99.99
2019-01-18T07:38:05.315Z,99.99
2019-01-18T07:39:05.067Z,99.99
2019-01-18T07:40:05.036Z,99.99
2019-01-18T07:41:05.009Z,99.99
2019-01-18T07:42:05.001Z,99.99
2019-01-18T07:43:05.227Z,99.99
2019-01-18T07:44:05.213Z,99.99
2019-01-18T07:45:05.213Z,99.99
2019-01-18T07:46:05.200Z,99.99
2019-01-18T07:47:05.179Z,99.99
2019-01-18T07:48:04.952Z,99.99
2019-01-18T07:49:04.928Z,99.99
2019-01-18T07:50:05.155Z,99.99
2019-01-18T07:51:05.153Z,99.99
2019-01-18T07:52:04.921Z,99.99
2019-01-18T07:53:04.885Z,99.99
2019-01-18T07:54:04.857Z,99.99
2019-01-18T07:55:04.840Z,99.99
2019-01-18T07:56:05.080Z,99.99
2019-01-18T07:57:04.827Z,99.99
2019-01-18T07:58:04.860Z,99.99
2019-01-18T07:59:05.087Z,99.99
2019-01-18T08:00:05.041Z,99.99
2019-01-18T08:01:05.025Z,99.99
2019-01-18T08:02:05.049Z,99.99
2019-01-18T08:03:05.027Z,99.99
2019-01-18T08:04:04.782Z,99.99
2019-01-18T08:05:04.985Z,99.99
2019-01-18T08:06:04.985Z,99.99
2019-01-18T08:07:04.964Z,99.99
2019-01-18T08:08:05.608Z,99.99
2019-01-18T08:09:04.958Z,99.99
2019-01-18T08:10:04.921Z,99.99
2019-01-18T08:11:04.908Z,99.99
2019-01-18T08:12:04.906Z,99.99
2019-01-18T08:13:04.896Z,99.99
2019-01-18T08:14:04.633Z,99.99
2019-01-18T08:15:04.636Z,99.99
2019-01-18T08:16:04.641Z,99.99
2019-01-18T08:17:04.854Z,99.99
2019-01-18T08:18:04.596Z,99.99
2019-01-18T08:19:04.829Z,99.99
2019-01-18T08:20:04.566Z,99.99
2019-01-18T08:21:04.818Z,99.99
2019-01-18T08:22:04.793Z,99.99
2019-01-18T08:23:04.784Z,99.99
2019-01-18T08:24:04.779Z,99.99
2019-01-18T08:25:04.766Z,99.99
2019-01-18T08:26:04.782Z,99.99
2019-01-18T08:27:04.746Z,99.99
2019-01-18T08:28:04.494Z,99.99
2019-01-18T08:29:04.728Z,99.99
2019-01-18T08:30:04.489Z,99.99
2019-01-18T08:31:04.710Z,99.99
2019-01-18T08:32:04.692Z,99.99
2019-01-18T08:33:04.692Z,99.99
2019-01-18T08:34:04.668Z,99.99
2019-01-18T08:35:04.781Z,99.99
2019-01-18T08:36:04.664Z,99.99
2019-01-18T08:37:04.630Z,99.99
2019-01-18T08:38:04.619Z,99.99
2019-01-18T08:39:04.371Z,99.99
2019-01-18T08:40:04.596Z,99.99
2019-01-18T08:41:04.342Z,99.99
2019-01-18T08:42:04.591Z,99.99
2019-01-18T08:43:04.326Z,99.99
2019-01-18T08:44:04.563Z,99.99
2019-01-18T08:45:04.550Z,99.99
2019-01-18T08:46:04.554Z,99.99
2019-01-18T08:47:04.317Z,99.99
2019-01-18T08:48:04.526Z,99.99
2019-01-18T08:49:04.519Z,98.86
2019-01-18T08:50:04.508Z,99.24
2019-01-18T08:51:04.500Z,99.99
2019-01-18T08:52:04.227Z,99.43
2019-01-18T08:53:04.494Z,98.58
2019-01-18T08:54:04.487Z,97.82
2019-01-18T08:55:04.448Z,97.92
2019-01-18T08:56:04.458Z,98.3
2019-01-18T08:57:04.461Z,97.63
2019-01-18T08:58:04.449Z,97.16
2019-01-18T08:59:04.427Z,97.63
2019-01-18T09:00:04.406Z,97.54
2019-01-18T09:01:04.398Z,97.16
2019-01-18T09:02:04.144Z,97.54
2019-01-18T09:03:04.378Z,98.49
2019-01-18T09:04:04.354Z,98.01
2019-01-18T09:05:04.358Z,98.01
2019-01-18T09:06:04.360Z,97.82
2019-01-18T09:07:04.085Z,98.3
2019-01-18T09:08:04.089Z,98.01
2019-01-18T09:09:04.323Z,98.39
2019-01-18T09:10:04.299Z,98.01
2019-01-18T09:11:04.289Z,97.92
2019-01-18T09:12:04.268Z,98.2
2019-01-18T09:13:04.270Z,98.2
2019-01-18T09:14:04.008Z,98.3
2019-01-18T09:15:04.250Z,97.73
2019-01-18T09:16:04.242Z,98.2
2019-01-18T09:17:04.220Z,97.73
2019-01-18T09:18:03.978Z,98.3
2019-01-18T09:19:04.212Z,98.3
2019-01-18T09:20:04.581Z,97.54
2019-01-18T09:21:04.194Z,97.54
2019-01-18T09:22:04.184Z,97.4
2019-01-18T09:23:04.177Z,97.78
2019-01-18T09:24:04.160Z,97.21
2019-01-18T09:25:04.177Z,97.4
2019-01-18T09:26:04.148Z,96.83
2019-01-18T09:27:03.926Z,96.07
2019-01-18T09:28:04.118Z,95.79
2019-01-18T09:29:03.868Z,96.17
2019-01-18T09:30:04.100Z,96.17
2019-01-18T09:31:04.548Z,95.69
2019-01-18T09:32:04.113Z,96.73
2019-01-18T09:33:03.820Z,95.88
2019-01-18T09:34:04.073Z,96.07
2019-01-18T09:35:04.069Z,95.69
2019-01-18T09:36:04.074Z,95.98
2019-01-18T09:37:04.043Z,95.5
2019-01-18T09:38:04.020Z,94.08
2019-01-18T09:39:03.778Z,93.32
2019-01-18T09:40:03.778Z,93.7
2019-01-18T09:41:04.033Z,92.47
2019-01-18T09:42:03.746Z,93.51
2019-01-18T09:43:03.981Z,93.8
2019-01-18T09:44:03.969Z,93.8
2019-01-18T09:45:03.711Z,94.27
2019-01-18T09:46:03.937Z,94.93
2019-01-18T09:47:03.698Z,94.93
2019-01-18T09:48:03.931Z,94.6
2019-01-18T09:49:03.685Z,95.45
2019-01-18T09:50:03.696Z,96.12
2019-01-18T09:51:03.893Z,95.55
2019-01-18T09:52:03.910Z,95.93
2019-01-18T09:53:03.629Z,95.93
2019-01-18T09:54:03.866Z,95.64
2019-01-18T09:55:03.857Z,95.74
2019-01-18T09:56:03.609Z,95.83
2019-01-18T09:57:03.578Z,95.93
2019-01-18T09:58:03.837Z,96.4
2019-01-18T09:59:03.828Z,95.93
2019-01-18T10:00:03.559Z,96.69
2019-01-18T10:01:05.320Z,97.35
2019-01-18T10:02:03.800Z,96.59
2019-01-18T10:03:03.559Z,95.45
2019-01-18T10:04:03.560Z,95.45
2019-01-18T10:05:03.755Z,95.93
2019-01-18T10:06:03.506Z,96.69
2019-01-18T10:07:03.731Z,95.93
2019-01-18T10:08:05.635Z,95.93
2019-01-18T10:09:03.476Z,95.55
2019-01-18T10:10:03.700Z,96.59
2019-01-18T10:11:03.693Z,96.31
2019-01-18T10:12:03.678Z,96.5
2019-01-18T10:13:03.683Z,96.59
2019-01-18T10:14:03.678Z,96.5
2019-01-18T10:15:03.664Z,96.02
2019-01-18T10:16:03.644Z,95.64
2019-01-18T10:17:03.636Z,94.98
2019-01-18T10:18:03.639Z,94.98
2019-01-18T10:19:03.658Z,95.93
2019-01-18T10:20:03.640Z,95.64
2019-01-18T10:21:03.595Z,96.4
2019-01-18T10:22:03.604Z,96.73
2019-01-18T10:23:03.567Z,95.6
2019-01-18T10:24:03.304Z,95.41
2019-01-18T10:25:03.566Z,94.37
2019-01-18T10:26:03.564Z,94.74
2019-01-18T10:27:03.279Z,94.93
2019-01-18T10:28:03.272Z,95.69
2019-01-18T10:29:03.262Z,95.31
2019-01-18T10:30:03.244Z,94.08
2019-01-18T10:31:03.238Z,94.18
2019-01-18T10:32:03.240Z,94.37
2019-01-18T10:33:03.506Z,93.99
2019-01-18T10:34:03.472Z,94.27
2019-01-18T10:35:03.191Z,94.65
2019-01-18T10:36:03.445Z,95.12
2019-01-18T10:37:03.422Z,96.07
2019-01-18T10:38:03.413Z,94.18
2019-01-18T10:39:03.169Z,94.65
2019-01-18T10:40:03.407Z,94.37
2019-01-18T10:41:03.397Z,94.56
2019-01-18T10:42:03.384Z,94.37
2019-01-18T10:43:03.372Z,94.84
2019-01-18T10:44:08.440Z,93.99
2019-01-18T10:45:03.091Z,93.89
2019-01-18T10:46:03.087Z,93.51
2019-01-18T10:47:03.335Z,94.37
2019-01-18T10:48:03.323Z,94.37
2019-01-18T10:49:03.067Z,94.56
2019-01-18T10:50:03.317Z,94.18
2019-01-18T10:51:03.350Z,94.27
2019-01-18T10:52:03.279Z,94.18
2019-01-18T10:53:03.023Z,93.99
2019-01-18T10:54:03.259Z,93.8
2019-01-18T10:55:03.425Z,93.7
2019-01-18T10:56:03.003Z,94.27
2019-01-18T10:57:02.979Z,94.18
2019-01-18T10:58:02.994Z,94.37
2019-01-18T10:59:03.219Z,93.8
2019-01-18T11:00:03.207Z,94.18
2019-01-18T11:01:02.950Z,92.85
2019-01-18T11:02:09.727Z,92.85
2019-01-18T11:03:03.178Z,92.28
2019-01-18T11:04:02.918Z,92.85
2019-01-18T11:05:02.911Z,93.51
2019-01-18T11:06:03.175Z,92.76
2019-01-18T11:07:03.160Z,91.9
2019-01-18T11:08:02.884Z,92.33
2019-01-18T11:09:03.376Z,91.19
2019-01-18T11:10:03.123Z,91.47
2019-01-18T11:11:02.865Z,91.19
2019-01-18T11:12:03.089Z,91
2019-01-18T11:13:02.827Z,91.38
2019-01-18T11:14:02.823Z,91.28
2019-01-18T11:15:03.061Z,90.91
2019-01-18T11:16:02.815Z,90.43
2019-01-18T11:17:03.082Z,90.62
2019-01-18T11:18:02.799Z,90.81
2019-01-18T11:19:02.776Z,91.09
2019-01-18T11:20:03.042Z,90.72
2019-01-18T11:21:03.005Z,90.24
2019-01-18T11:22:02.816Z,89.86
2019-01-18T11:23:02.988Z,89.96
2019-01-18T11:24:02.730Z,89.86
2019-01-18T11:25:02.733Z,90.24
2019-01-18T11:26:02.970Z,90.24
2019-01-18T11:27:02.966Z,90.81
2019-01-18T11:28:02.967Z,90.53
2019-01-18T11:29:02.687Z,90.72
2019-01-18T11:30:02.932Z,90.24
2019-01-18T11:31:02.916Z,90.72
2019-01-18T11:32:02.906Z,90.24
2019-01-18T11:33:02.905Z,90.15
2019-01-18T11:34:02.900Z,90.05
2019-01-18T11:35:02.882Z,90.15
2019-01-18T11:36:02.632Z,89.53
2019-01-18T11:37:02.879Z,88.2
2019-01-18T11:38:02.620Z,88.01
2019-01-18T11:39:04.754Z,87.92
2019-01-18T11:40:02.595Z,87.35
2019-01-18T11:41:02.583Z,87.73
2019-01-18T11:42:05.269Z,87.63
2019-01-18T11:43:02.825Z,88.01
2019-01-18T11:44:02.830Z,88.48
2019-01-18T11:45:02.803Z,89.15
2019-01-18T11:46:02.819Z,88.48
2019-01-18T11:47:02.782Z,88.01
2019-01-18T11:48:02.776Z,87.92
2019-01-18T11:49:02.541Z,88.58
2019-01-18T11:50:02.761Z,88.58
2019-01-18T11:51:02.511Z,87.82
2019-01-18T11:52:02.747Z,86.78
2019-01-18T11:53:02.736Z,85.93
2019-01-18T11:54:02.727Z,86.16
2019-01-18T11:55:02.754Z,86.45
2019-01-18T11:56:02.469Z,86.74
2019-01-18T11:57:02.476Z,87.02
2019-01-18T11:58:02.464Z,86.93
2019-01-18T11:59:02.436Z,86.55
2019-01-18T12:00:02.689Z,87.21
2019-01-18T12:01:02.693Z,87.12
2019-01-18T12:02:02.668Z,87.12
2019-01-18T12:03:02.673Z,87.02
2019-01-18T12:04:02.398Z,87.3
2019-01-18T12:05:02.399Z,87.87
2019-01-18T12:06:02.629Z,88.63
2019-01-18T12:07:02.633Z,88.82
2019-01-18T12:08:02.607Z,88.25
2019-01-18T12:09:02.596Z,88.2
2019-01-18T12:10:02.439Z,87.25
2019-01-18T12:11:02.590Z,87.16
2019-01-18T12:12:02.580Z,86.59
2019-01-18T12:13:02.322Z,86.87
2019-01-18T12:14:02.581Z,86.78
2019-01-18T12:15:02.699Z,87.73
2019-01-18T12:16:02.294Z,87.73
2019-01-18T12:17:02.292Z,87.54
2019-01-18T12:18:03.284Z,87.16
2019-01-18T12:19:02.531Z,87.73
2019-01-18T12:20:02.319Z,88.2
2019-01-18T12:21:02.299Z,87.82
2019-01-18T12:22:02.490Z,86.02
2019-01-18T12:23:02.494Z,84.88
2019-01-18T12:24:02.223Z,84.41
2019-01-18T12:25:02.582Z,84.5
2019-01-18T12:26:02.466Z,84.78
2019-01-18T12:27:02.447Z,84.55
2019-01-18T12:28:02.436Z,84.46
2019-01-18T12:29:02.484Z,85.22
2019-01-18T12:30:02.197Z,85.97
2019-01-18T12:31:02.423Z,86.07
2019-01-18T12:32:02.401Z,86.93
2019-01-18T12:33:02.163Z,87.12
2019-01-18T12:34:02.147Z,87.49
2019-01-18T12:35:02.132Z,88.25
2019-01-18T12:36:02.120Z,89.01
2019-01-18T12:37:02.363Z,88.92
2019-01-18T12:38:02.110Z,89.48
2019-01-18T12:39:02.354Z,90.43
2019-01-18T12:40:02.347Z,89.53
2019-01-18T12:41:02.084Z,88.48
2019-01-18T12:42:02.317Z,87.73
2019-01-18T12:43:02.310Z,87.4
2019-01-18T12:44:02.303Z,88.54
2019-01-18T12:45:03.696Z,88.73
2019-01-18T12:46:02.046Z,89.2
2019-01-18T12:47:02.296Z,89.96
2019-01-18T12:48:02.020Z,90.62
2019-01-18T12:49:02.260Z,90.76
2019-01-18T12:50:02.246Z,88.39
2019-01-18T12:51:03.418Z,88.29
2019-01-18T12:52:02.001Z,88.29
2019-01-18T12:53:02.234Z,88.2
2019-01-18T12:54:02.216Z,88.48